sensor_id;sensor_type;location;lat;lon;timestamp;P1;durP1;ratioP1;P2;durP2;ratioP2
62673;SDS011;62269;47.594;17.638;2022-10-14T00:00:21;18.40;;;15.23;;
62673;SDS011;62269;47.594;17.638;2022-10-14T00:01:10;16.90;;;14.65;;
62673;SDS011;62269;47.594;17.638;2022-10-14T00:02:05;17.48;;;14.63;;
62673;SDS011;62269;47.594;17.638;2022-10-14T00:02:52;19.10;;;14.27;;
62673;SDS011;62269;47.594;17.638;2022-10-14T00:03:39;18.12;;;15.18;;
62673;SDS011;62269;47.594;17.638;2022-10-14T00:04:26;19.67;;;15.90;;
62673;SDS011;62269;47.594;17.638;2022-10-14T00:05:13;18.67;;;16.00;;
62673;SDS011;62269;47.594;17.638;2022-10-14T00:06:04;17.35;;;14.75;;
62673;SDS011;62269;47.594;17.638;2022-10-14T00:06:51;15.57;;;13.93;;
62673;SDS011;62269;47.594;17.638;2022-10-14T00:07:38;20.92;;;14.73;;
62673;SDS011;62269;47.594;17.638;2022-10-14T00:08:25;16.30;;;14.25;;
62673;SDS011;62269;47.594;17.638;2022-10-14T00:09:12;21.42;;;14.95;;
62673;SDS011;62269;47.594;17.638;2022-10-14T00:09:59;19.50;;;15.00;;
62673;SDS011;62269;47.594;17.638;2022-10-14T00:10:46;16.87;;;14.55;;
62673;SDS011;62269;47.594;17.638;2022-10-14T00:11:34;20.25;;;15.98;;
62673;SDS011;62269;47.594;17.638;2022-10-14T00:12:22;17.67;;;14.57;;
62673;SDS011;62269;47.594;17.638;2022-10-14T00:13:09;19.85;;;15.05;;
62673;SDS011;62269;47.594;17.638;2022-10-14T00:13:57;18.35;;;15.18;;
62673;SDS011;62269;47.594;17.638;2022-10-14T00:14:46;20.00;;;14.95;;
62673;SDS011;62269;47.594;17.638;2022-10-14T00:15:37;23.23;;;15.43;;
62673;SDS011;62269;47.594;17.638;2022-10-14T00:16:26;17.17;;;14.40;;
62673;SDS011;62269;47.594;17.638;2022-10-14T00:17:15;18.60;;;14.52;;
62673;SDS011;62269;47.594;17.638;2022-10-14T00:18:03;18.30;;;14.60;;
62673;SDS011;62269;47.594;17.638;2022-10-14T00:18:50;17.73;;;14.90;;
62673;SDS011;62269;47.594;17.638;2022-10-14T00:19:36;16.30;;;14.48;;
62673;SDS011;62269;47.594;17.638;2022-10-14T00:20:23;17.35;;;14.45;;
62673;SDS011;62269;47.594;17.638;2022-10-14T00:21:11;17.50;;;14.30;;
62673;SDS011;62269;47.594;17.638;2022-10-14T00:21:57;19.65;;;15.73;;
62673;SDS011;62269;47.594;17.638;2022-10-14T00:22:44;21.48;;;14.57;;
62673;SDS011;62269;47.594;17.638;2022-10-14T00:23:31;18.35;;;16.00;;
62673;SDS011;62269;47.594;17.638;2022-10-14T00:24:18;23.42;;;14.85;;
62673;SDS011;62269;47.594;17.638;2022-10-14T00:25:05;18.23;;;15.10;;
62673;SDS011;62269;47.594;17.638;2022-10-14T00:25:53;19.85;;;15.10;;
62673;SDS011;62269;47.594;17.638;2022-10-14T00:26:40;19.70;;;15.23;;
62673;SDS011;62269;47.594;17.638;2022-10-14T00:27:27;19.90;;;14.95;;
62673;SDS011;62269;47.594;17.638;2022-10-14T00:28:14;18.30;;;15.30;;
62673;SDS011;62269;47.594;17.638;2022-10-14T00:29:02;16.85;;;13.93;;
62673;SDS011;62269;47.594;17.638;2022-10-14T00:29:50;17.33;;;14.15;;
62673;SDS011;62269;47.594;17.638;2022-10-14T00:30:37;17.67;;;14.82;;
62673;SDS011;62269;47.594;17.638;2022-10-14T00:31:24;18.23;;;14.65;;
62673;SDS011;62269;47.594;17.638;2022-10-14T00:32:12;17.50;;;14.80;;
62673;SDS011;62269;47.594;17.638;2022-10-14T00:32:59;17.92;;;14.75;;
62673;SDS011;62269;47.594;17.638;2022-10-14T00:33:46;20.48;;;16.05;;
62673;SDS011;62269;47.594;17.638;2022-10-14T00:34:33;19.40;;;15.50;;
62673;SDS011;62269;47.594;17.638;2022-10-14T00:35:20;17.37;;;14.75;;
62673;SDS011;62269;47.594;17.638;2022-10-14T00:36:07;19.00;;;15.57;;
62673;SDS011;62269;47.594;17.638;2022-10-14T00:36:57;24.05;;;14.95;;
62673;SDS011;62269;47.594;17.638;2022-10-14T00:37:44;20.88;;;16.17;;
62673;SDS011;62269;47.594;17.638;2022-10-14T00:38:31;20.88;;;14.93;;
62673;SDS011;62269;47.594;17.638;2022-10-14T00:39:18;17.65;;;14.77;;
62673;SDS011;62269;47.594;17.638;2022-10-14T00:40:05;15.77;;;14.07;;
62673;SDS011;62269;47.594;17.638;2022-10-14T00:40:53;18.27;;;14.50;;
62673;SDS011;62269;47.594;17.638;2022-10-14T00:41:40;19.85;;;15.35;;
62673;SDS011;62269;47.594;17.638;2022-10-14T00:42:27;18.60;;;14.87;;
62673;SDS011;62269;47.594;17.638;2022-10-14T00:43:18;17.52;;;14.52;;
62673;SDS011;62269;47.594;17.638;2022-10-14T00:44:53;17.48;;;14.52;;
62673;SDS011;62269;47.594;17.638;2022-10-14T00:45:14;17.30;;;14.48;;
62673;SDS011;62269;47.594;17.638;2022-10-14T00:46:02;17.45;;;15.05;;
62673;SDS011;62269;47.594;17.638;2022-10-14T00:46:49;19.02;;;14.90;;
62673;SDS011;62269;47.594;17.638;2022-10-14T00:47:36;17.85;;;15.38;;
62673;SDS011;62269;47.594;17.638;2022-10-14T00:48:24;18.83;;;14.75;;
62673;SDS011;62269;47.594;17.638;2022-10-14T00:50:06;17.08;;;14.45;;
62673;SDS011;62269;47.594;17.638;2022-10-14T00:50:54;20.52;;;15.40;;
62673;SDS011;62269;47.594;17.638;2022-10-14T00:51:43;19.27;;;15.38;;
62673;SDS011;62269;47.594;17.638;2022-10-14T00:52:33;18.20;;;15.88;;
62673;SDS011;62269;47.594;17.638;2022-10-14T00:53:20;17.87;;;15.63;;
62673;SDS011;62269;47.594;17.638;2022-10-14T00:54:08;18.77;;;15.00;;
62673;SDS011;62269;47.594;17.638;2022-10-14T00:54:57;17.77;;;14.55;;
62673;SDS011;62269;47.594;17.638;2022-10-14T00:55:47;17.55;;;15.40;;
62673;SDS011;62269;47.594;17.638;2022-10-14T00:56:35;17.25;;;13.98;;
62673;SDS011;62269;47.594;17.638;2022-10-14T00:57:22;18.05;;;14.45;;
62673;SDS011;62269;47.594;17.638;2022-10-14T00:58:10;17.35;;;15.35;;
62673;SDS011;62269;47.594;17.638;2022-10-14T00:58:57;18.48;;;14.65;;
62673;SDS011;62269;47.594;17.638;2022-10-14T00:59:45;20.65;;;15.90;;
62673;SDS011;62269;47.594;17.638;2022-10-14T01:00:32;20.08;;;15.63;;
62673;SDS011;62269;47.594;17.638;2022-10-14T01:01:19;18.98;;;15.52;;
62673;SDS011;62269;47.594;17.638;2022-10-14T01:02:06;17.25;;;14.90;;
62673;SDS011;62269;47.594;17.638;2022-10-14T01:02:53;20.80;;;15.18;;
62673;SDS011;62269;47.594;17.638;2022-10-14T01:03:41;19.02;;;15.63;;
62673;SDS011;62269;47.594;17.638;2022-10-14T01:04:28;17.48;;;15.10;;
62673;SDS011;62269;47.594;17.638;2022-10-14T01:05:16;21.52;;;14.50;;
62673;SDS011;62269;47.594;17.638;2022-10-14T01:11:11;17.45;;;14.25;;
62673;SDS011;62269;47.594;17.638;2022-10-14T01:12:19;16.80;;;14.13;;
62673;SDS011;62269;47.594;17.638;2022-10-14T01:13:25;18.33;;;13.43;;
62673;SDS011;62269;47.594;17.638;2022-10-14T01:14:21;19.65;;;15.38;;
62673;SDS011;62269;47.594;17.638;2022-10-14T01:16:21;18.55;;;14.65;;
62673;SDS011;62269;47.594;17.638;2022-10-14T01:18:29;16.08;;;14.38;;
62673;SDS011;62269;47.594;17.638;2022-10-14T01:22:28;19.12;;;14.50;;
62673;SDS011;62269;47.594;17.638;2022-10-14T01:31:00;17.75;;;14.45;;
62673;SDS011;62269;47.594;17.638;2022-10-14T01:32:09;18.58;;;14.25;;
62673;SDS011;62269;47.594;17.638;2022-10-14T01:34:08;18.98;;;14.00;;
62673;SDS011;62269;47.594;17.638;2022-10-14T01:37:07;19.92;;;15.48;;
62673;SDS011;62269;47.594;17.638;2022-10-14T01:38:02;17.85;;;14.23;;
62673;SDS011;62269;47.594;17.638;2022-10-14T01:38:56;19.55;;;13.65;;
62673;SDS011;62269;47.594;17.638;2022-10-14T01:40:21;17.17;;;14.65;;
62673;SDS011;62269;47.594;17.638;2022-10-14T01:41:47;16.40;;;13.80;;
62673;SDS011;62269;47.594;17.638;2022-10-14T01:42:37;21.52;;;14.40;;
62673;SDS011;62269;47.594;17.638;2022-10-14T01:43:25;19.42;;;13.93;;
62673;SDS011;62269;47.594;17.638;2022-10-14T01:44:13;18.58;;;14.50;;
62673;SDS011;62269;47.594;17.638;2022-10-14T01:45:10;19.02;;;14.98;;
62673;SDS011;62269;47.594;17.638;2022-10-14T01:46:01;17.48;;;14.60;;
62673;SDS011;62269;47.594;17.638;2022-10-14T01:46:50;19.25;;;14.90;;
62673;SDS011;62269;47.594;17.638;2022-10-14T01:47:39;17.33;;;14.25;;
62673;SDS011;62269;47.594;17.638;2022-10-14T01:48:28;19.80;;;14.80;;
62673;SDS011;62269;47.594;17.638;2022-10-14T01:49:29;19.00;;;14.52;;
62673;SDS011;62269;47.594;17.638;2022-10-14T01:50:21;22.90;;;14.73;;
62673;SDS011;62269;47.594;17.638;2022-10-14T01:51:13;22.20;;;14.77;;
62673;SDS011;62269;47.594;17.638;2022-10-14T01:52:07;18.42;;;14.48;;
62673;SDS011;62269;47.594;17.638;2022-10-14T01:53:53;18.92;;;14.65;;
62673;SDS011;62269;47.594;17.638;2022-10-14T01:54:43;17.00;;;14.77;;
62673;SDS011;62269;47.594;17.638;2022-10-14T01:55:32;20.02;;;15.40;;
62673;SDS011;62269;47.594;17.638;2022-10-14T01:56:20;17.33;;;14.13;;
62673;SDS011;62269;47.594;17.638;2022-10-14T01:57:10;18.60;;;14.18;;
62673;SDS011;62269;47.594;17.638;2022-10-14T01:58:00;21.08;;;13.77;;
62673;SDS011;62269;47.594;17.638;2022-10-14T01:58:48;18.48;;;14.63;;
62673;SDS011;62269;47.594;17.638;2022-10-14T01:59:36;18.95;;;14.48;;
62673;SDS011;62269;47.594;17.638;2022-10-14T02:00:24;19.65;;;13.95;;
62673;SDS011;62269;47.594;17.638;2022-10-14T02:01:11;17.60;;;14.25;;
62673;SDS011;62269;47.594;17.638;2022-10-14T02:01:58;16.80;;;14.05;;
62673;SDS011;62269;47.594;17.638;2022-10-14T02:02:45;17.25;;;15.18;;
62673;SDS011;62269;47.594;17.638;2022-10-14T02:03:39;21.92;;;15.63;;
62673;SDS011;62269;47.594;17.638;2022-10-14T02:04:27;18.25;;;14.32;;
62673;SDS011;62269;47.594;17.638;2022-10-14T02:06:41;17.85;;;13.45;;
62673;SDS011;62269;47.594;17.638;2022-10-14T02:07:31;20.00;;;14.90;;
62673;SDS011;62269;47.594;17.638;2022-10-14T02:08:33;18.50;;;14.38;;
62673;SDS011;62269;47.594;17.638;2022-10-14T02:10:38;16.90;;;13.55;;
62673;SDS011;62269;47.594;17.638;2022-10-14T02:15:16;15.65;;;13.38;;
62673;SDS011;62269;47.594;17.638;2022-10-14T02:16:11;18.02;;;14.00;;
62673;SDS011;62269;47.594;17.638;2022-10-14T02:18:09;16.98;;;14.10;;
62673;SDS011;62269;47.594;17.638;2022-10-14T02:21:41;18.48;;;14.73;;
62673;SDS011;62269;47.594;17.638;2022-10-14T02:23:31;17.67;;;13.75;;
62673;SDS011;62269;47.594;17.638;2022-10-14T02:24:25;19.70;;;13.77;;
62673;SDS011;62269;47.594;17.638;2022-10-14T02:25:17;16.33;;;13.50;;
62673;SDS011;62269;47.594;17.638;2022-10-14T02:26:07;18.15;;;14.38;;
62673;SDS011;62269;47.594;17.638;2022-10-14T02:26:56;22.87;;;14.85;;
62673;SDS011;62269;47.594;17.638;2022-10-14T02:27:44;18.55;;;14.90;;
62673;SDS011;62269;47.594;17.638;2022-10-14T02:28:32;18.98;;;14.35;;
62673;SDS011;62269;47.594;17.638;2022-10-14T02:29:19;21.58;;;14.30;;
62673;SDS011;62269;47.594;17.638;2022-10-14T02:30:07;19.85;;;15.77;;
62673;SDS011;62269;47.594;17.638;2022-10-14T02:30:56;19.02;;;14.68;;
62673;SDS011;62269;47.594;17.638;2022-10-14T02:31:45;20.23;;;14.70;;
62673;SDS011;62269;47.594;17.638;2022-10-14T02:32:33;22.45;;;14.98;;
62673;SDS011;62269;47.594;17.638;2022-10-14T02:33:21;18.58;;;14.57;;
62673;SDS011;62269;47.594;17.638;2022-10-14T02:34:11;26.37;;;15.40;;
62673;SDS011;62269;47.594;17.638;2022-10-14T02:35:01;17.45;;;14.32;;
62673;SDS011;62269;47.594;17.638;2022-10-14T02:35:49;19.60;;;15.13;;
62673;SDS011;62269;47.594;17.638;2022-10-14T02:36:37;17.40;;;14.43;;
62673;SDS011;62269;47.594;17.638;2022-10-14T02:37:25;18.35;;;14.38;;
62673;SDS011;62269;47.594;17.638;2022-10-14T02:38:12;17.30;;;14.63;;
62673;SDS011;62269;47.594;17.638;2022-10-14T02:39:00;18.60;;;14.63;;
62673;SDS011;62269;47.594;17.638;2022-10-14T02:39:59;18.70;;;15.05;;
62673;SDS011;62269;47.594;17.638;2022-10-14T02:40:51;18.67;;;14.13;;
62673;SDS011;62269;47.594;17.638;2022-10-14T02:41:38;18.90;;;13.98;;
62673;SDS011;62269;47.594;17.638;2022-10-14T02:42:26;16.33;;;14.18;;
62673;SDS011;62269;47.594;17.638;2022-10-14T02:43:14;19.55;;;15.50;;
62673;SDS011;62269;47.594;17.638;2022-10-14T02:44:03;18.95;;;14.15;;
62673;SDS011;62269;47.594;17.638;2022-10-14T02:44:57;17.42;;;13.32;;
62673;SDS011;62269;47.594;17.638;2022-10-14T02:45:45;17.00;;;14.02;;
62673;SDS011;62269;47.594;17.638;2022-10-14T02:46:32;18.02;;;14.82;;
62673;SDS011;62269;47.594;17.638;2022-10-14T02:47:21;20.25;;;14.75;;
62673;SDS011;62269;47.594;17.638;2022-10-14T02:48:08;19.62;;;16.02;;
62673;SDS011;62269;47.594;17.638;2022-10-14T02:48:56;18.27;;;14.55;;
62673;SDS011;62269;47.594;17.638;2022-10-14T02:49:43;21.58;;;14.45;;
62673;SDS011;62269;47.594;17.638;2022-10-14T02:50:30;19.20;;;14.77;;
62673;SDS011;62269;47.594;17.638;2022-10-14T02:51:17;17.05;;;15.13;;
62673;SDS011;62269;47.594;17.638;2022-10-14T02:52:04;19.50;;;14.98;;
62673;SDS011;62269;47.594;17.638;2022-10-14T02:52:51;19.33;;;14.43;;
62673;SDS011;62269;47.594;17.638;2022-10-14T02:53:38;19.02;;;14.82;;
62673;SDS011;62269;47.594;17.638;2022-10-14T02:54:24;20.75;;;15.70;;
62673;SDS011;62269;47.594;17.638;2022-10-14T02:55:11;18.00;;;14.25;;
62673;SDS011;62269;47.594;17.638;2022-10-14T02:55:58;18.48;;;14.38;;
62673;SDS011;62269;47.594;17.638;2022-10-14T02:56:45;19.30;;;16.33;;
62673;SDS011;62269;47.594;17.638;2022-10-14T02:57:32;19.52;;;14.98;;
62673;SDS011;62269;47.594;17.638;2022-10-14T02:58:19;18.75;;;15.25;;
62673;SDS011;62269;47.594;17.638;2022-10-14T02:59:06;19.52;;;14.55;;
62673;SDS011;62269;47.594;17.638;2022-10-14T02:59:53;18.52;;;14.25;;
62673;SDS011;62269;47.594;17.638;2022-10-14T03:00:39;16.08;;;14.10;;
62673;SDS011;62269;47.594;17.638;2022-10-14T03:01:26;17.02;;;14.55;;
62673;SDS011;62269;47.594;17.638;2022-10-14T03:02:15;20.85;;;15.77;;
62673;SDS011;62269;47.594;17.638;2022-10-14T03:03:02;18.85;;;14.40;;
62673;SDS011;62269;47.594;17.638;2022-10-14T03:03:49;20.92;;;14.73;;
62673;SDS011;62269;47.594;17.638;2022-10-14T03:04:36;19.50;;;14.35;;
62673;SDS011;62269;47.594;17.638;2022-10-14T03:05:23;17.25;;;14.80;;
62673;SDS011;62269;47.594;17.638;2022-10-14T03:06:10;19.77;;;14.90;;
62673;SDS011;62269;47.594;17.638;2022-10-14T03:06:58;19.10;;;14.95;;
62673;SDS011;62269;47.594;17.638;2022-10-14T03:07:45;18.62;;;14.70;;
62673;SDS011;62269;47.594;17.638;2022-10-14T03:08:31;16.98;;;14.30;;
62673;SDS011;62269;47.594;17.638;2022-10-14T03:09:18;18.02;;;14.55;;
62673;SDS011;62269;47.594;17.638;2022-10-14T03:10:05;21.02;;;15.23;;
62673;SDS011;62269;47.594;17.638;2022-10-14T03:10:52;19.37;;;14.52;;
62673;SDS011;62269;47.594;17.638;2022-10-14T03:11:39;21.10;;;14.75;;
62673;SDS011;62269;47.594;17.638;2022-10-14T03:12:26;18.70;;;14.15;;
62673;SDS011;62269;47.594;17.638;2022-10-14T03:13:13;21.92;;;15.23;;
62673;SDS011;62269;47.594;17.638;2022-10-14T03:14:00;18.02;;;13.70;;
62673;SDS011;62269;47.594;17.638;2022-10-14T03:14:47;18.77;;;14.05;;
62673;SDS011;62269;47.594;17.638;2022-10-14T03:15:34;18.12;;;14.45;;
62673;SDS011;62269;47.594;17.638;2022-10-14T03:16:21;20.60;;;14.87;;
62673;SDS011;62269;47.594;17.638;2022-10-14T03:17:08;19.33;;;15.30;;
62673;SDS011;62269;47.594;17.638;2022-10-14T03:17:55;25.05;;;15.23;;
62673;SDS011;62269;47.594;17.638;2022-10-14T03:18:42;18.85;;;14.18;;
62673;SDS011;62269;47.594;17.638;2022-10-14T03:19:29;17.48;;;14.07;;
62673;SDS011;62269;47.594;17.638;2022-10-14T03:20:16;22.20;;;14.73;;
62673;SDS011;62269;47.594;17.638;2022-10-14T03:21:03;19.75;;;15.48;;
62673;SDS011;62269;47.594;17.638;2022-10-14T03:21:50;20.75;;;14.45;;
62673;SDS011;62269;47.594;17.638;2022-10-14T03:22:37;17.60;;;14.50;;
62673;SDS011;62269;47.594;17.638;2022-10-14T03:23:24;17.92;;;14.75;;
62673;SDS011;62269;47.594;17.638;2022-10-14T03:24:11;20.98;;;15.38;;
62673;SDS011;62269;47.594;17.638;2022-10-14T03:24:58;18.45;;;15.23;;
62673;SDS011;62269;47.594;17.638;2022-10-14T03:25:45;17.15;;;14.45;;
62673;SDS011;62269;47.594;17.638;2022-10-14T03:26:32;20.05;;;14.68;;
62673;SDS011;62269;47.594;17.638;2022-10-14T03:27:19;20.12;;;14.93;;
62673;SDS011;62269;47.594;17.638;2022-10-14T03:28:06;27.27;;;15.23;;
62673;SDS011;62269;47.594;17.638;2022-10-14T03:28:53;21.62;;;15.18;;
62673;SDS011;62269;47.594;17.638;2022-10-14T03:29:40;19.92;;;14.23;;
62673;SDS011;62269;47.594;17.638;2022-10-14T03:30:27;19.98;;;14.85;;
62673;SDS011;62269;47.594;17.638;2022-10-14T03:31:13;19.08;;;14.30;;
62673;SDS011;62269;47.594;17.638;2022-10-14T03:32:00;18.52;;;14.73;;
62673;SDS011;62269;47.594;17.638;2022-10-14T03:32:47;20.15;;;14.68;;
62673;SDS011;62269;47.594;17.638;2022-10-14T03:33:34;20.08;;;16.12;;
62673;SDS011;62269;47.594;17.638;2022-10-14T03:34:21;22.25;;;15.48;;
62673;SDS011;62269;47.594;17.638;2022-10-14T03:35:08;17.92;;;15.52;;
62673;SDS011;62269;47.594;17.638;2022-10-14T03:35:56;19.17;;;14.52;;
62673;SDS011;62269;47.594;17.638;2022-10-14T03:36:43;16.92;;;15.00;;
62673;SDS011;62269;47.594;17.638;2022-10-14T03:37:30;17.00;;;15.02;;
62673;SDS011;62269;47.594;17.638;2022-10-14T03:38:16;16.67;;;14.87;;
62673;SDS011;62269;47.594;17.638;2022-10-14T03:39:03;16.75;;;14.30;;
62673;SDS011;62269;47.594;17.638;2022-10-14T03:39:50;18.98;;;15.30;;
62673;SDS011;62269;47.594;17.638;2022-10-14T03:40:38;20.50;;;15.32;;
62673;SDS011;62269;47.594;17.638;2022-10-14T03:41:25;20.45;;;15.40;;
62673;SDS011;62269;47.594;17.638;2022-10-14T03:42:12;22.90;;;14.68;;
62673;SDS011;62269;47.594;17.638;2022-10-14T03:42:59;16.70;;;14.23;;
62673;SDS011;62269;47.594;17.638;2022-10-14T03:43:46;20.12;;;15.75;;
62673;SDS011;62269;47.594;17.638;2022-10-14T03:44:33;17.45;;;14.25;;
62673;SDS011;62269;47.594;17.638;2022-10-14T03:45:20;21.48;;;15.38;;
62673;SDS011;62269;47.594;17.638;2022-10-14T03:46:07;18.45;;;14.85;;
62673;SDS011;62269;47.594;17.638;2022-10-14T03:46:54;20.80;;;14.52;;
62673;SDS011;62269;47.594;17.638;2022-10-14T03:47:41;19.25;;;14.80;;
62673;SDS011;62269;47.594;17.638;2022-10-14T03:48:27;18.42;;;14.98;;
62673;SDS011;62269;47.594;17.638;2022-10-14T03:49:14;17.45;;;14.82;;
62673;SDS011;62269;47.594;17.638;2022-10-14T03:50:02;19.37;;;15.82;;
62673;SDS011;62269;47.594;17.638;2022-10-14T03:50:50;19.40;;;15.65;;
62673;SDS011;62269;47.594;17.638;2022-10-14T03:51:37;18.60;;;15.82;;
62673;SDS011;62269;47.594;17.638;2022-10-14T03:52:24;18.48;;;15.93;;
62673;SDS011;62269;47.594;17.638;2022-10-14T03:53:11;19.85;;;15.27;;
62673;SDS011;62269;47.594;17.638;2022-10-14T03:53:58;20.75;;;14.98;;
62673;SDS011;62269;47.594;17.638;2022-10-14T03:54:45;20.25;;;14.75;;
62673;SDS011;62269;47.594;17.638;2022-10-14T03:55:32;17.70;;;14.85;;
62673;SDS011;62269;47.594;17.638;2022-10-14T03:56:19;18.15;;;14.77;;
62673;SDS011;62269;47.594;17.638;2022-10-14T03:57:06;19.50;;;15.57;;
62673;SDS011;62269;47.594;17.638;2022-10-14T03:57:53;20.65;;;14.98;;
62673;SDS011;62269;47.594;17.638;2022-10-14T03:58:40;18.02;;;14.25;;
62673;SDS011;62269;47.594;17.638;2022-10-14T03:59:27;19.77;;;15.82;;
62673;SDS011;62269;47.594;17.638;2022-10-14T04:00:14;16.92;;;15.10;;
62673;SDS011;62269;47.594;17.638;2022-10-14T04:01:01;20.30;;;14.87;;
62673;SDS011;62269;47.594;17.638;2022-10-14T04:01:48;19.33;;;15.60;;
62673;SDS011;62269;47.594;17.638;2022-10-14T04:02:35;18.48;;;15.05;;
62673;SDS011;62269;47.594;17.638;2022-10-14T04:03:22;19.70;;;16.12;;
62673;SDS011;62269;47.594;17.638;2022-10-14T04:04:09;18.90;;;14.57;;
62673;SDS011;62269;47.594;17.638;2022-10-14T04:04:56;21.75;;;15.65;;
62673;SDS011;62269;47.594;17.638;2022-10-14T04:05:46;21.53;;;15.07;;
62673;SDS011;62269;47.594;17.638;2022-10-14T04:06:33;18.10;;;15.18;;
62673;SDS011;62269;47.594;17.638;2022-10-14T04:07:20;20.52;;;15.50;;
62673;SDS011;62269;47.594;17.638;2022-10-14T04:08:07;17.20;;;15.32;;
62673;SDS011;62269;47.594;17.638;2022-10-14T04:08:54;23.23;;;16.37;;
62673;SDS011;62269;47.594;17.638;2022-10-14T04:09:41;18.33;;;14.90;;
62673;SDS011;62269;47.594;17.638;2022-10-14T04:10:28;17.20;;;15.00;;
62673;SDS011;62269;47.594;17.638;2022-10-14T04:11:15;17.92;;;14.70;;
62673;SDS011;62269;47.594;17.638;2022-10-14T04:12:02;21.80;;;15.65;;
62673;SDS011;62269;47.594;17.638;2022-10-14T04:12:49;20.50;;;15.55;;
62673;SDS011;62269;47.594;17.638;2022-10-14T04:13:37;18.05;;;15.57;;
62673;SDS011;62269;47.594;17.638;2022-10-14T04:14:24;17.92;;;15.23;;
62673;SDS011;62269;47.594;17.638;2022-10-14T04:15:12;20.00;;;14.77;;
62673;SDS011;62269;47.594;17.638;2022-10-14T04:16:04;18.75;;;14.57;;
62673;SDS011;62269;47.594;17.638;2022-10-14T04:16:54;18.27;;;15.20;;
62673;SDS011;62269;47.594;17.638;2022-10-14T04:17:41;19.35;;;15.30;;
62673;SDS011;62269;47.594;17.638;2022-10-14T04:18:28;16.75;;;14.90;;
62673;SDS011;62269;47.594;17.638;2022-10-14T04:19:15;21.87;;;15.43;;
62673;SDS011;62269;47.594;17.638;2022-10-14T04:20:03;19.73;;;15.30;;
62673;SDS011;62269;47.594;17.638;2022-10-14T04:20:50;20.05;;;15.45;;
62673;SDS011;62269;47.594;17.638;2022-10-14T04:21:37;21.60;;;15.68;;
62673;SDS011;62269;47.594;17.638;2022-10-14T04:22:29;19.12;;;15.27;;
62673;SDS011;62269;47.594;17.638;2022-10-14T04:23:23;21.08;;;15.23;;
62673;SDS011;62269;47.594;17.638;2022-10-14T04:24:10;20.83;;;15.68;;
62673;SDS011;62269;47.594;17.638;2022-10-14T04:24:58;19.98;;;15.90;;
62673;SDS011;62269;47.594;17.638;2022-10-14T04:25:45;17.87;;;15.07;;
62673;SDS011;62269;47.594;17.638;2022-10-14T04:26:32;18.80;;;15.05;;
62673;SDS011;62269;47.594;17.638;2022-10-14T04:27:18;20.88;;;15.40;;
62673;SDS011;62269;47.594;17.638;2022-10-14T04:28:05;18.30;;;15.93;;
62673;SDS011;62269;47.594;17.638;2022-10-14T04:28:53;18.77;;;15.50;;
62673;SDS011;62269;47.594;17.638;2022-10-14T04:29:40;19.12;;;15.45;;
62673;SDS011;62269;47.594;17.638;2022-10-14T04:30:27;20.60;;;16.05;;
62673;SDS011;62269;47.594;17.638;2022-10-14T04:31:14;18.85;;;15.95;;
62673;SDS011;62269;47.594;17.638;2022-10-14T04:32:01;20.08;;;15.95;;
62673;SDS011;62269;47.594;17.638;2022-10-14T04:32:48;21.12;;;16.17;;
62673;SDS011;62269;47.594;17.638;2022-10-14T04:33:35;18.62;;;15.23;;
62673;SDS011;62269;47.594;17.638;2022-10-14T04:34:22;18.90;;;16.25;;
62673;SDS011;62269;47.594;17.638;2022-10-14T04:35:09;20.67;;;16.20;;
62673;SDS011;62269;47.594;17.638;2022-10-14T04:35:59;22.45;;;15.95;;
62673;SDS011;62269;47.594;17.638;2022-10-14T04:36:47;18.20;;;15.30;;
62673;SDS011;62269;47.594;17.638;2022-10-14T04:37:34;20.15;;;15.30;;
62673;SDS011;62269;47.594;17.638;2022-10-14T04:38:21;20.27;;;15.52;;
62673;SDS011;62269;47.594;17.638;2022-10-14T04:39:08;24.42;;;17.40;;
62673;SDS011;62269;47.594;17.638;2022-10-14T04:39:55;19.60;;;15.85;;
62673;SDS011;62269;47.594;17.638;2022-10-14T04:40:45;20.52;;;16.80;;
62673;SDS011;62269;47.594;17.638;2022-10-14T04:41:32;19.98;;;16.35;;
62673;SDS011;62269;47.594;17.638;2022-10-14T04:42:19;20.62;;;17.65;;
62673;SDS011;62269;47.594;17.638;2022-10-14T04:43:06;21.52;;;17.42;;
62673;SDS011;62269;47.594;17.638;2022-10-14T04:43:53;21.80;;;17.10;;
62673;SDS011;62269;47.594;17.638;2022-10-14T04:44:40;24.58;;;17.35;;
62673;SDS011;62269;47.594;17.638;2022-10-14T04:45:27;19.95;;;17.80;;
62673;SDS011;62269;47.594;17.638;2022-10-14T04:46:14;20.80;;;16.90;;
62673;SDS011;62269;47.594;17.638;2022-10-14T04:47:01;20.95;;;17.17;;
62673;SDS011;62269;47.594;17.638;2022-10-14T04:47:48;21.40;;;17.65;;
62673;SDS011;62269;47.594;17.638;2022-10-14T04:48:35;26.70;;;18.15;;
62673;SDS011;62269;47.594;17.638;2022-10-14T04:49:22;22.95;;;17.35;;
62673;SDS011;62269;47.594;17.638;2022-10-14T04:50:09;24.42;;;17.55;;
62673;SDS011;62269;47.594;17.638;2022-10-14T04:50:56;22.52;;;17.02;;
62673;SDS011;62269;47.594;17.638;2022-10-14T04:51:43;21.37;;;17.50;;
62673;SDS011;62269;47.594;17.638;2022-10-14T04:52:30;21.62;;;17.62;;
62673;SDS011;62269;47.594;17.638;2022-10-14T04:53:17;22.95;;;17.62;;
62673;SDS011;62269;47.594;17.638;2022-10-14T04:54:07;22.37;;;17.05;;
62673;SDS011;62269;47.594;17.638;2022-10-14T04:54:54;21.08;;;16.92;;
62673;SDS011;62269;47.594;17.638;2022-10-14T04:55:42;21.50;;;17.00;;
62673;SDS011;62269;47.594;17.638;2022-10-14T04:56:30;19.02;;;16.55;;
62673;SDS011;62269;47.594;17.638;2022-10-14T04:57:17;19.10;;;15.68;;
62673;SDS011;62269;47.594;17.638;2022-10-14T04:58:04;21.67;;;16.95;;
62673;SDS011;62269;47.594;17.638;2022-10-14T04:58:51;21.52;;;16.58;;
62673;SDS011;62269;47.594;17.638;2022-10-14T04:59:38;18.83;;;16.37;;
62673;SDS011;62269;47.594;17.638;2022-10-14T05:00:25;18.98;;;16.20;;
62673;SDS011;62269;47.594;17.638;2022-10-14T05:01:12;18.85;;;15.20;;
62673;SDS011;62269;47.594;17.638;2022-10-14T05:01:59;20.58;;;16.67;;
62673;SDS011;62269;47.594;17.638;2022-10-14T05:02:46;28.12;;;16.20;;
62673;SDS011;62269;47.594;17.638;2022-10-14T05:03:33;21.73;;;16.08;;
62673;SDS011;62269;47.594;17.638;2022-10-14T05:04:20;21.92;;;16.92;;
62673;SDS011;62269;47.594;17.638;2022-10-14T05:05:07;18.12;;;16.25;;
62673;SDS011;62269;47.594;17.638;2022-10-14T05:05:54;21.45;;;16.15;;
62673;SDS011;62269;47.594;17.638;2022-10-14T05:06:41;21.37;;;16.23;;
62673;SDS011;62269;47.594;17.638;2022-10-14T05:07:28;22.42;;;16.70;;
62673;SDS011;62269;47.594;17.638;2022-10-14T05:08:15;18.27;;;16.08;;
62673;SDS011;62269;47.594;17.638;2022-10-14T05:09:02;19.25;;;16.60;;
62673;SDS011;62269;47.594;17.638;2022-10-14T05:09:50;18.12;;;16.23;;
62673;SDS011;62269;47.594;17.638;2022-10-14T05:10:42;18.90;;;16.27;;
62673;SDS011;62269;47.594;17.638;2022-10-14T05:11:29;22.92;;;17.15;;
62673;SDS011;62269;47.594;17.638;2022-10-14T05:12:16;18.77;;;16.65;;
62673;SDS011;62269;47.594;17.638;2022-10-14T05:13:03;20.67;;;16.30;;
62673;SDS011;62269;47.594;17.638;2022-10-14T05:13:50;20.85;;;16.58;;